Address 0x0ffaad135d2e7082ca125162d006535a724b3d42 2

 
 
Txn Hash
Block
From
To
Value [Txn Fee]
0xfe10aa748cca880c42d3f0840f435746788ab8b5a67338702a8fd6c74fb0455887700372021-07-01 7:13:0533 days 9 hrs ago0x0ffaad135d2e7082ca125162d006535a724b3d42OUT0x917117ded6f1effe754e2cc55a87c4cdd8c00a6f0.004 BNB0.000105
0xcc7d2e41b44e10a6258ac12ffd6d3311c35f957a45863cbe1612edfdfb2a23a587698732021-07-01 7:04:5333 days 9 hrs ago0x0ffaad135d2e7082ca125162d006535a724b3d42OUT PancakeSwap: Router v20 BNB0.00088454
0xba9e84f2d7cc94ee4d69d2bd7fabe0fc8a8a34b7cd09659f63e0fc276418a84787698662021-07-01 7:04:3233 days 9 hrs ago0x0ffaad135d2e7082ca125162d006535a724b3d42OUT 0x9ab776357142694841d42c1abe08c817a7d134000 BNB0.00023683
0x373c1f4e8ca2a25791c8c9756912d5b3ef3a0c9ab7fb58a67aeda5142c9b989087698452021-07-01 7:03:2733 days 9 hrs ago0xd8f0ae373a93a2c47bb348e968327273de962f25 IN 0x0ffaad135d2e7082ca125162d006535a724b3d420.0015 BNB0.000105
0x01e8ba60bbd3ce08a70349585d35c902b9706b24841054f797a3fa38319005f387040342021-06-28 23:45:0635 days 17 hrs ago0x0ffaad135d2e7082ca125162d006535a724b3d42OUT Neftipiedia : NFT Token0 BNB0.00010648
0xb9fc4d9883f55dfc4d222763a69e25055eefa169768c8807c74d2c97e8c6c2d885297772021-06-22 21:57:5341 days 18 hrs ago0x0ffaad135d2e7082ca125162d006535a724b3d42OUT SafuYield Protocol: SAFUYIELD Token0 BNB0.00028545
0x093e91d0173e15fd067b48044009420410d48dac4c71c1c2a759b0d28c29258e81518822021-06-09 16:45:2255 days 5 mins ago0x0ffaad135d2e7082ca125162d006535a724b3d42OUT 0x65a017cb8f4e840d2ee111cebfca602cf22908730 BNB0.00041672
0x72db98f333385381dd09a9dc2c8883dc4f7f57ee0de0c0206613ed0f2514010481179072021-06-08 12:21:4056 days 4 hrs ago0x0ffaad135d2e7082ca125162d006535a724b3d42OUT SafuYield Protocol: SAFUYIELD Token0 BNB0.000489655
0x5df75ab3795d162612b129895bca455a1c92499a4cdf67ad27dae91ce28394c480388712021-06-05 18:22:4858 days 22 hrs ago0x0ffaad135d2e7082ca125162d006535a724b3d42OUT 0x3e8cfdd483c5818c5a4a799cbaae324002d086ad0 BNB0.000106635
0x11517fa6b52280e2f3aae91609270c5bda30805df44d2397b91b57bcd00d08f680388342021-06-05 18:20:5758 days 22 hrs ago0x1c946c1b31f9513eebd9672d5f530b8468427b16 IN 0x0ffaad135d2e7082ca125162d006535a724b3d420.001 BNB0.000105
0x97fded33d7ab85ae808e5e91f39eb8224b4301ccb85d1a857186cb6715bcf40d78605452021-05-30 13:16:2965 days 3 hrs ago0x0ffaad135d2e7082ca125162d006535a724b3d42OUT HashPanda: PANDA Token0 BNB0.00044108
0xb1bf520aac9ebf858f523b755c1ab9f6128fdec745dd4d64b3ddc0cf5c3cdffb78605372021-05-30 13:16:0565 days 3 hrs ago0x7b1dfa18e3482ef54cb962e9733b535debfccfac IN 0x0ffaad135d2e7082ca125162d006535a724b3d420.001 BNB0.000105
0xd2d8ed1611232d31b481e0e57ef9e7682df89c79fce567364a0ed2be1b40138a77387862021-05-26 7:12:4169 days 9 hrs ago0x0ffaad135d2e7082ca125162d006535a724b3d42OUT 0xca69c118fa550387794d48900a866891217e5c9f0 BNB0.000105575
0xb36f46933cd2b8bc7b119000e5cd917d0b0338d3315f95e39ffdfa0950c45dc275673942021-05-20 7:48:0775 days 9 hrs ago0x0ffaad135d2e7082ca125162d006535a724b3d42OUT 0xe19e8a3f71d394d9341369df055e023a1d2de6a40 BNB0.000589595
0x73aa0abfcee791017f110e55c7e6b20554b5c51195059f25e4144a88b76970a175673872021-05-20 7:47:4675 days 9 hrs ago0xd9e59fda22236088af3830f7870795b1d81af924 IN 0x0ffaad135d2e7082ca125162d006535a724b3d420.0009 BNB0.000105
0x83fac382957513d8f286172af2c5d23badfde141a3d12c458070c42f55cd0fa174330152021-05-15 14:18:4580 days 2 hrs ago0x0ffaad135d2e7082ca125162d006535a724b3d42OUT0xeeace9dd2a2d229dd7d06acfbbcaa298f78bb2070.00199814 BNB0.000105
0x2653cdc788304701eec4e0749a68bc68e881c02e07903785b1acadb0ef60611374330002021-05-15 14:18:0080 days 2 hrs ago0x0ffaad135d2e7082ca125162d006535a724b3d42OUT Real Finance Network: REFI Token0 BNB0.00011213
0x315cabfc484e55a05ada872aa784042b91a87b26974000cf9aefcca1af7073b374329892021-05-15 14:17:2780 days 2 hrs ago0x74ac86c0ab4b2616942fe1847a2b5ed12d8ac309 IN 0x0ffaad135d2e7082ca125162d006535a724b3d420.00221527 BNB0.000105
0x31f8e4baed06ca1ca11b0e22a5d93715100172823f77517cf64be8d96408ccce67103482021-04-19 19:26:00105 days 21 hrs ago0x0ffaad135d2e7082ca125162d006535a724b3d42OUT0xeeace9dd2a2d229dd7d06acfbbcaa298f78bb2070.031471982415894 BNB0.000105
0xa571903432f0c057eb0fdb23135fa75ee27d287678cad1df9afd150d8da4e9b267103362021-04-19 19:25:24105 days 21 hrs ago0x0ffaad135d2e7082ca125162d006535a724b3d42OUT Liquifi DAO: LQF Token0 BNB0.00010794
0xe3b3178e249db44ecc54e52722cc1cc2285af746586699823fe2a0350b905e1c67103272021-04-19 19:24:57105 days 21 hrs ago0x74ac86c0ab4b2616942fe1847a2b5ed12d8ac309 IN 0x0ffaad135d2e7082ca125162d006535a724b3d420.031579817415894 BNB0.000105
0x756ccb9b74f3bc38f781e762baa40ec7f9bd48552d90b3f80cc39beefbd7912c66191432021-04-16 15:10:52109 days 1 hr ago0x0ffaad135d2e7082ca125162d006535a724b3d42OUT0xeeace9dd2a2d229dd7d06acfbbcaa298f78bb2070 BNB0.000105
0x0e79ad4df3fd6d2abb6fbffbe31e7b383ec1bfcff2c4b359215dceef0153a7f966191102021-04-16 15:09:13109 days 1 hr ago0x0ffaad135d2e7082ca125162d006535a724b3d42OUT 0x7141cfca20e8406b9de97f6769074778639d42a40 BNB0.000307555
0xe360675eaf87df14740d02501154723ccd02755ee6177cd0f2a92a8235a3d55266190992021-04-16 15:08:40109 days 1 hr ago0x74ac86c0ab4b2616942fe1847a2b5ed12d8ac309 IN 0x0ffaad135d2e7082ca125162d006535a724b3d420.000145595 BNB0.000105
0x331cc8eb6d1db6a76d4fb525ae0639f7aaf43c15a810cd73e5c010a43bc49f1165758622021-04-15 3:02:17110 days 13 hrs ago0x0ffaad135d2e7082ca125162d006535a724b3d42OUT 0x7141cfca20e8406b9de97f6769074778639d42a40 BNB0.000496785
[ Download CSV Export 
Latest 1 internal transaction
Parent Txn Hash Block From To Value
0xcc7d2e41b44e10a6258ac12ffd6d3311c35f957a45863cbe1612edfdfb2a23a587698732021-07-01 7:04:5333 days 9 hrs ago PancakeSwap: Router v20x0ffaad135d2e7082ca125162d006535a724b3d420.003944764341237894 BNB
[ Download CSV Export 
Loading

Contract Name:
0 BNB

Compiler Version
0

Optimization Enabled:
0 BNB

Other Settings:
-NA-
Block Transaction Gas Used Reward
Age Block Fee Address BC Fee Address Voting Power Jailed Incoming
Block Uncle Number Difficulty Gas Used Reward
Loading
Loading
Make sure to use the "Vote Down" button for any spammy posts, and the "Vote Up" for interesting conversations.